Aérodrome :
LOGIN :

S'inscrire | Disclaimer

   EN    FR    IT 

 










Légende :    VFR   VFR Marginal   IFR   IFR Intensif   IFR Très Intensif
Visi : 
Plafond : 
>= 8 km
>= 3000ft
5 à 8 km
1000 à 3000 ft
1500m à 5 km
500 à 1000 ft
800 à 1500m
200 à 500 ft
< 800m
< 200 ft
Symboles :   Orages  Brouillard  Fortes neiges  Fortes précipitations  Vent > 20 kt
SIGMETs :   Divers  Orages  Givrage  Turbulence  Onde Orograph.  Cendres Volcan.






- Altitude de l'aérodrome : 294 ft
- Code IATA : NAP


LIRN - Naples Capodichino

DERNIER METAR :
  • 201320Z VRB03KT CAVOK 25/15 Q1019 NOSIG

METARs EXPIRÉS :
  • 201250Z VRB03KT CAVOK 25/15 Q1019 NOSIG
  • 201220Z VRB05KT CAVOK 24/15 Q1020 NOSIG
  • 201150Z VRB03KT CAVOK 24/15 Q1020 NOSIG
  • 201120Z VRB02KT CAVOK 24/15 Q1020 NOSIG
  • 201050Z VRB02KT CAVOK 23/15 Q1021 NOSIG

TAF TAF LIRN
Valide du 20 à 12h jusqu'au 21 à 12h UTC


201100Z 2012/2112 22010KT CAVOK
BECMG 2016/2018 VRB05KT
BECMG 2108/2110 22010KT



MET'MAP, la Météo Aéronautique d'un coup d'oeil ! - Copyright ORBIFLY Décembre 2007 - Disclaimer

ORBIFLY MET'MAP TEAM :

Programmation & Développement : Alexandra Zaïnal
Conception & Développement : Baudouin d'Aumeries
Co-Programmation & Développement : Marc-Olivier Méhu
Soutien technique & logistique : Manuel Goepfert

Contact : metmap@orbifly.com




SOURCES & CREDITS :

   NOAA